Terminal Aerodrome Forecast
Issued by NWS North Platte, NE

Home | Current Version | Previous Version | Text Only | Print | Product List | Glossary On
Versions: 1 2 3 4 5 6 7 8 9 10 11 12 13 14 15 16 17 18 19 20
000
FTUS43 KLBF 222300
TAFLBF
TAF
KLBF 222331Z 2300/2324 11014KT P6SM OVC009
      TEMPO 2300/2302 -RA SCT009 OVC015
     FM230200 12011KT P6SM -RA OVC007
     FM230600 13009KT 5SM -RA BR OVC004
      TEMPO 2306/2309 3SM TSRA BKN010CB
     FM231800 13012KT P6SM OVC015=

USA.gov is the U.S. government's official web portal to all federal, state and local government web resources and services.